sensor_id;sensor_type;location;lat;lon;timestamp;P1;durP1;ratioP1;P2;durP2;ratioP2
76262;SDS011;65080;50.908;6.916;2022-11-30T00:00:08;45.00;;;20.70;;
76262;SDS011;65080;50.908;6.916;2022-11-30T00:02:37;52.87;;;21.07;;
76262;SDS011;65080;50.908;6.916;2022-11-30T00:05:05;46.30;;;22.70;;
76262;SDS011;65080;50.908;6.916;2022-11-30T00:07:34;44.33;;;20.23;;
76262;SDS011;65080;50.908;6.916;2022-11-30T00:10:03;47.50;;;22.50;;
76262;SDS011;65080;50.908;6.916;2022-11-30T00:12:32;45.50;;;22.20;;
76262;SDS011;65080;50.908;6.916;2022-11-30T00:15:02;46.40;;;21.97;;
76262;SDS011;65080;50.908;6.916;2022-11-30T00:17:31;54.57;;;23.03;;
76262;SDS011;65080;50.908;6.916;2022-11-30T00:19:59;50.47;;;24.47;;
76262;SDS011;65080;50.908;6.916;2022-11-30T00:22:28;49.07;;;20.93;;
76262;SDS011;65080;50.908;6.916;2022-11-30T00:24:56;50.13;;;22.80;;
76262;SDS011;65080;50.908;6.916;2022-11-30T00:27:26;55.73;;;25.13;;
76262;SDS011;65080;50.908;6.916;2022-11-30T00:29:54;54.50;;;23.70;;
76262;SDS011;65080;50.908;6.916;2022-11-30T00:32:24;54.83;;;24.53;;
76262;SDS011;65080;50.908;6.916;2022-11-30T00:34:52;57.30;;;24.57;;
76262;SDS011;65080;50.908;6.916;2022-11-30T00:37:21;49.83;;;23.30;;
76262;SDS011;65080;50.908;6.916;2022-11-30T00:39:49;54.23;;;23.90;;
76262;SDS011;65080;50.908;6.916;2022-11-30T00:42:17;56.13;;;24.70;;
76262;SDS011;65080;50.908;6.916;2022-11-30T00:44:46;58.17;;;27.27;;
76262;SDS011;65080;50.908;6.916;2022-11-30T00:47:14;69.00;;;27.80;;
76262;SDS011;65080;50.908;6.916;2022-11-30T00:49:44;60.20;;;27.10;;
76262;SDS011;65080;50.908;6.916;2022-11-30T00:52:12;67.00;;;26.20;;
76262;SDS011;65080;50.908;6.916;2022-11-30T00:54:40;55.00;;;26.67;;
76262;SDS011;65080;50.908;6.916;2022-11-30T00:57:08;61.90;;;25.93;;
76262;SDS011;65080;50.908;6.916;2022-11-30T00:59:37;57.27;;;25.07;;
76262;SDS011;65080;50.908;6.916;2022-11-30T01:02:05;54.73;;;24.60;;
76262;SDS011;65080;50.908;6.916;2022-11-30T01:04:33;62.00;;;27.43;;
76262;SDS011;65080;50.908;6.916;2022-11-30T01:07:03;68.27;;;26.50;;
76262;SDS011;65080;50.908;6.916;2022-11-30T01:09:31;67.07;;;27.20;;
76262;SDS011;65080;50.908;6.916;2022-11-30T01:11:59;74.70;;;28.70;;
76262;SDS011;65080;50.908;6.916;2022-11-30T01:14:27;71.73;;;27.97;;
76262;SDS011;65080;50.908;6.916;2022-11-30T01:16:56;65.23;;;29.33;;
76262;SDS011;65080;50.908;6.916;2022-11-30T01:19:24;75.13;;;29.07;;
76262;SDS011;65080;50.908;6.916;2022-11-30T01:21:52;87.70;;;30.30;;
76262;SDS011;65080;50.908;6.916;2022-11-30T01:24:22;74.50;;;31.30;;
76262;SDS011;65080;50.908;6.916;2022-11-30T01:26:50;71.40;;;29.03;;
76262;SDS011;65080;50.908;6.916;2022-11-30T01:29:18;76.70;;;30.03;;
76262;SDS011;65080;50.908;6.916;2022-11-30T01:31:46;77.13;;;29.33;;
76262;SDS011;65080;50.908;6.916;2022-11-30T01:34:15;78.77;;;31.00;;
76262;SDS011;65080;50.908;6.916;2022-11-30T01:36:43;77.03;;;28.20;;
76262;SDS011;65080;50.908;6.916;2022-11-30T01:39:11;80.40;;;30.80;;
76262;SDS011;65080;50.908;6.916;2022-11-30T01:41:41;62.83;;;27.63;;
76262;SDS011;65080;50.908;6.916;2022-11-30T01:47:15;76.97;;;30.70;;
76262;SDS011;65080;50.908;6.916;2022-11-30T01:49:47;67.00;;;28.50;;
76262;SDS011;65080;50.908;6.916;2022-11-30T01:52:19;65.00;;;26.57;;
76262;SDS011;65080;50.908;6.916;2022-11-30T01:54:50;80.23;;;28.43;;
76262;SDS011;65080;50.908;6.916;2022-11-30T01:57:24;70.57;;;29.20;;
76262;SDS011;65080;50.908;6.916;2022-11-30T01:59:57;69.10;;;28.23;;
76262;SDS011;65080;50.908;6.916;2022-11-30T02:02:30;65.90;;;26.07;;
76262;SDS011;65080;50.908;6.916;2022-11-30T02:05:04;69.27;;;26.13;;
76262;SDS011;65080;50.908;6.916;2022-11-30T02:07:33;74.80;;;28.80;;
76262;SDS011;65080;50.908;6.916;2022-11-30T02:10:02;71.90;;;28.87;;
76262;SDS011;65080;50.908;6.916;2022-11-30T02:12:33;75.43;;;28.70;;
76262;SDS011;65080;50.908;6.916;2022-11-30T02:15:11;88.83;;;30.37;;
76262;SDS011;65080;50.908;6.916;2022-11-30T02:17:51;66.23;;;25.67;;
76262;SDS011;65080;50.908;6.916;2022-11-30T02:23:13;70.00;;;26.40;;
76262;SDS011;65080;50.908;6.916;2022-11-30T02:26:07;69.23;;;28.30;;
76262;SDS011;65080;50.908;6.916;2022-11-30T02:28:50;80.60;;;28.10;;
76262;SDS011;65080;50.908;6.916;2022-11-30T02:31:34;80.83;;;27.30;;
76262;SDS011;65080;50.908;6.916;2022-11-30T02:34:08;82.17;;;28.93;;
76262;SDS011;65080;50.908;6.916;2022-11-30T02:36:40;76.27;;;27.40;;
76262;SDS011;65080;50.908;6.916;2022-11-30T02:39:12;88.50;;;28.10;;
76262;SDS011;65080;50.908;6.916;2022-11-30T02:41:42;84.17;;;28.67;;
76262;SDS011;65080;50.908;6.916;2022-11-30T02:44:12;95.70;;;28.47;;
76262;SDS011;65080;50.908;6.916;2022-11-30T02:46:46;96.87;;;27.70;;
76262;SDS011;65080;50.908;6.916;2022-11-30T02:49:26;92.60;;;26.43;;
76262;SDS011;65080;50.908;6.916;2022-11-30T02:51:59;98.37;;;29.83;;
76262;SDS011;65080;50.908;6.916;2022-11-30T02:54:29;85.57;;;27.23;;
76262;SDS011;65080;50.908;6.916;2022-11-30T02:56:57;92.67;;;27.67;;
76262;SDS011;65080;50.908;6.916;2022-11-30T02:59:27;82.87;;;27.50;;
76262;SDS011;65080;50.908;6.916;2022-11-30T03:01:55;75.73;;;26.40;;
76262;SDS011;65080;50.908;6.916;2022-11-30T03:04:24;76.73;;;25.87;;
76262;SDS011;65080;50.908;6.916;2022-11-30T03:06:52;71.47;;;25.83;;
76262;SDS011;65080;50.908;6.916;2022-11-30T03:09:20;81.10;;;26.13;;
76262;SDS011;65080;50.908;6.916;2022-11-30T03:11:48;72.67;;;25.70;;
76262;SDS011;65080;50.908;6.916;2022-11-30T03:14:16;71.83;;;25.70;;
76262;SDS011;65080;50.908;6.916;2022-11-30T03:16:46;70.07;;;25.67;;
76262;SDS011;65080;50.908;6.916;2022-11-30T03:19:14;65.17;;;24.17;;
76262;SDS011;65080;50.908;6.916;2022-11-30T03:21:43;78.97;;;26.60;;
76262;SDS011;65080;50.908;6.916;2022-11-30T03:24:13;65.93;;;26.00;;
76262;SDS011;65080;50.908;6.916;2022-11-30T03:26:41;74.00;;;24.83;;
76262;SDS011;65080;50.908;6.916;2022-11-30T03:29:09;64.30;;;24.37;;
76262;SDS011;65080;50.908;6.916;2022-11-30T03:31:37;70.33;;;25.17;;
76262;SDS011;65080;50.908;6.916;2022-11-30T03:34:07;67.90;;;23.93;;
76262;SDS011;65080;50.908;6.916;2022-11-30T03:36:35;63.93;;;25.10;;
76262;SDS011;65080;50.908;6.916;2022-11-30T03:39:04;56.43;;;23.57;;
76262;SDS011;65080;50.908;6.916;2022-11-30T03:41:32;59.93;;;23.43;;
76262;SDS011;65080;50.908;6.916;2022-11-30T03:44:01;78.33;;;22.07;;
76262;SDS011;65080;50.908;6.916;2022-11-30T03:46:30;65.53;;;22.70;;
76262;SDS011;65080;50.908;6.916;2022-11-30T03:48:59;66.67;;;23.60;;
76262;SDS011;65080;50.908;6.916;2022-11-30T03:51:30;60.73;;;24.20;;
76262;SDS011;65080;50.908;6.916;2022-11-30T03:53:58;68.23;;;23.60;;
76262;SDS011;65080;50.908;6.916;2022-11-30T03:56:27;73.20;;;25.17;;
76262;SDS011;65080;50.908;6.916;2022-11-30T03:58:55;66.77;;;24.13;;
76262;SDS011;65080;50.908;6.916;2022-11-30T04:01:24;71.70;;;24.80;;
76262;SDS011;65080;50.908;6.916;2022-11-30T04:03:53;71.40;;;26.30;;
76262;SDS011;65080;50.908;6.916;2022-11-30T04:06:21;74.23;;;26.27;;
76262;SDS011;65080;50.908;6.916;2022-11-30T04:08:51;65.37;;;24.80;;
76262;SDS011;65080;50.908;6.916;2022-11-30T04:11:19;76.37;;;24.17;;
76262;SDS011;65080;50.908;6.916;2022-11-30T04:13:48;83.90;;;27.20;;
76262;SDS011;65080;50.908;6.916;2022-11-30T04:16:16;96.57;;;29.67;;
76262;SDS011;65080;50.908;6.916;2022-11-30T04:18:45;88.77;;;30.63;;
76262;SDS011;65080;50.908;6.916;2022-11-30T04:21:14;99.33;;;29.30;;
76262;SDS011;65080;50.908;6.916;2022-11-30T04:23:42;88.10;;;27.70;;
76262;SDS011;65080;50.908;6.916;2022-11-30T04:26:12;90.37;;;30.50;;
76262;SDS011;65080;50.908;6.916;2022-11-30T04:28:42;88.87;;;29.30;;
76262;SDS011;65080;50.908;6.916;2022-11-30T04:31:10;99.53;;;30.13;;
76262;SDS011;65080;50.908;6.916;2022-11-30T04:33:39;114.17;;;31.87;;
76262;SDS011;65080;50.908;6.916;2022-11-30T04:36:12;112.93;;;32.07;;
76262;SDS011;65080;50.908;6.916;2022-11-30T04:38:44;112.13;;;31.50;;
76262;SDS011;65080;50.908;6.916;2022-11-30T04:41:14;90.07;;;29.33;;
76262;SDS011;65080;50.908;6.916;2022-11-30T04:43:43;106.77;;;32.90;;
76262;SDS011;65080;50.908;6.916;2022-11-30T04:46:11;128.37;;;31.07;;
76262;SDS011;65080;50.908;6.916;2022-11-30T04:48:39;107.27;;;31.43;;
76262;SDS011;65080;50.908;6.916;2022-11-30T04:51:07;113.80;;;31.70;;
76262;SDS011;65080;50.908;6.916;2022-11-30T04:53:36;112.43;;;32.60;;
76262;SDS011;65080;50.908;6.916;2022-11-30T04:56:05;94.97;;;29.77;;
76262;SDS011;65080;50.908;6.916;2022-11-30T04:58:35;102.13;;;32.50;;
76262;SDS011;65080;50.908;6.916;2022-11-30T05:01:04;107.50;;;32.77;;
76262;SDS011;65080;50.908;6.916;2022-11-30T05:03:33;93.70;;;29.30;;
76262;SDS011;65080;50.908;6.916;2022-11-30T05:06:01;101.30;;;30.93;;
76262;SDS011;65080;50.908;6.916;2022-11-30T05:08:30;87.17;;;30.50;;
76262;SDS011;65080;50.908;6.916;2022-11-30T05:10:58;92.30;;;30.40;;
76262;SDS011;65080;50.908;6.916;2022-11-30T05:13:26;97.57;;;30.70;;
76262;SDS011;65080;50.908;6.916;2022-11-30T05:15:57;90.73;;;31.27;;
76262;SDS011;65080;50.908;6.916;2022-11-30T05:18:27;83.30;;;30.50;;
76262;SDS011;65080;50.908;6.916;2022-11-30T05:20:57;82.37;;;28.50;;
76262;SDS011;65080;50.908;6.916;2022-11-30T05:23:25;68.90;;;28.77;;
76262;SDS011;65080;50.908;6.916;2022-11-30T05:25:53;65.97;;;27.20;;
76262;SDS011;65080;50.908;6.916;2022-11-30T05:28:21;68.10;;;27.90;;
76262;SDS011;65080;50.908;6.916;2022-11-30T05:30:50;56.37;;;25.23;;
76262;SDS011;65080;50.908;6.916;2022-11-30T05:33:19;64.53;;;26.10;;
76262;SDS011;65080;50.908;6.916;2022-11-30T05:35:48;60.50;;;27.70;;
76262;SDS011;65080;50.908;6.916;2022-11-30T05:38:16;57.37;;;27.87;;
76262;SDS011;65080;50.908;6.916;2022-11-30T05:40:44;54.40;;;25.67;;
76262;SDS011;65080;50.908;6.916;2022-11-30T05:43:13;70.17;;;27.73;;
76262;SDS011;65080;50.908;6.916;2022-11-30T05:45:41;57.50;;;25.53;;
76262;SDS011;65080;50.908;6.916;2022-11-30T05:48:09;61.80;;;27.80;;
76262;SDS011;65080;50.908;6.916;2022-11-30T05:50:39;60.43;;;28.90;;
76262;SDS011;65080;50.908;6.916;2022-11-30T05:53:07;80.17;;;35.43;;
76262;SDS011;65080;50.908;6.916;2022-11-30T05:55:36;81.40;;;30.37;;
76262;SDS011;65080;50.908;6.916;2022-11-30T05:58:05;77.30;;;31.97;;
76262;SDS011;65080;50.908;6.916;2022-11-30T06:00:33;81.83;;;31.73;;
76262;SDS011;65080;50.908;6.916;2022-11-30T06:03:01;86.43;;;30.70;;
76262;SDS011;65080;50.908;6.916;2022-11-30T06:05:32;110.27;;;34.90;;
76262;SDS011;65080;50.908;6.916;2022-11-30T06:08:03;84.07;;;33.07;;
76262;SDS011;65080;50.908;6.916;2022-11-30T06:10:32;98.93;;;33.93;;
76262;SDS011;65080;50.908;6.916;2022-11-30T06:13:04;94.23;;;33.60;;
76262;SDS011;65080;50.908;6.916;2022-11-30T06:15:33;83.10;;;31.50;;
76262;SDS011;65080;50.908;6.916;2022-11-30T06:18:03;91.97;;;33.53;;
76262;SDS011;65080;50.908;6.916;2022-11-30T06:20:32;76.70;;;34.17;;
76262;SDS011;65080;50.908;6.916;2022-11-30T06:23:03;87.30;;;34.07;;
76262;SDS011;65080;50.908;6.916;2022-11-30T06:25:32;93.77;;;36.33;;
76262;SDS011;65080;50.908;6.916;2022-11-30T06:28:00;82.07;;;34.67;;
76262;SDS011;65080;50.908;6.916;2022-11-30T06:30:28;70.17;;;32.30;;
76262;SDS011;65080;50.908;6.916;2022-11-30T06:32:56;84.93;;;32.90;;
76262;SDS011;65080;50.908;6.916;2022-11-30T06:35:25;68.30;;;29.90;;
76262;SDS011;65080;50.908;6.916;2022-11-30T06:37:53;64.23;;;29.90;;
76262;SDS011;65080;50.908;6.916;2022-11-30T06:40:23;62.90;;;29.77;;
76262;SDS011;65080;50.908;6.916;2022-11-30T06:42:51;67.17;;;29.90;;
76262;SDS011;65080;50.908;6.916;2022-11-30T06:45:19;56.37;;;29.13;;
76262;SDS011;65080;50.908;6.916;2022-11-30T06:47:48;61.13;;;29.90;;
76262;SDS011;65080;50.908;6.916;2022-11-30T06:50:16;59.60;;;28.80;;
76262;SDS011;65080;50.908;6.916;2022-11-30T06:52:44;53.20;;;28.83;;
76262;SDS011;65080;50.908;6.916;2022-11-30T06:55:12;50.47;;;27.60;;
76262;SDS011;65080;50.908;6.916;2022-11-30T06:57:42;51.47;;;26.73;;
76262;SDS011;65080;50.908;6.916;2022-11-30T07:00:11;51.93;;;27.40;;
76262;SDS011;65080;50.908;6.916;2022-11-30T07:02:40;51.67;;;26.80;;
76262;SDS011;65080;50.908;6.916;2022-11-30T07:05:08;49.10;;;26.87;;
76262;SDS011;65080;50.908;6.916;2022-11-30T07:07:37;44.70;;;24.67;;
76262;SDS011;65080;50.908;6.916;2022-11-30T07:10:07;45.13;;;23.67;;
76262;SDS011;65080;50.908;6.916;2022-11-30T07:12:36;37.50;;;23.03;;
76262;SDS011;65080;50.908;6.916;2022-11-30T07:15:06;42.40;;;23.10;;
76262;SDS011;65080;50.908;6.916;2022-11-30T07:17:35;40.57;;;23.87;;
76262;SDS011;65080;50.908;6.916;2022-11-30T07:20:04;39.73;;;22.90;;
76262;SDS011;65080;50.908;6.916;2022-11-30T07:22:33;40.73;;;23.60;;
76262;SDS011;65080;50.908;6.916;2022-11-30T07:25:01;40.07;;;23.23;;
76262;SDS011;65080;50.908;6.916;2022-11-30T07:27:48;41.77;;;24.47;;
76262;SDS011;65080;50.908;6.916;2022-11-30T07:30:18;37.70;;;22.17;;
76262;SDS011;65080;50.908;6.916;2022-11-30T07:32:46;42.37;;;23.30;;
76262;SDS011;65080;50.908;6.916;2022-11-30T07:35:14;36.33;;;21.80;;
76262;SDS011;65080;50.908;6.916;2022-11-30T07:37:42;38.50;;;22.70;;
76262;SDS011;65080;50.908;6.916;2022-11-30T07:40:11;40.07;;;22.63;;
76262;SDS011;65080;50.908;6.916;2022-11-30T07:42:40;40.23;;;22.03;;
76262;SDS011;65080;50.908;6.916;2022-11-30T07:45:08;42.23;;;21.97;;
76262;SDS011;65080;50.908;6.916;2022-11-30T07:47:39;39.53;;;23.60;;
76262;SDS011;65080;50.908;6.916;2022-11-30T07:50:08;39.60;;;22.20;;
76262;SDS011;65080;50.908;6.916;2022-11-30T07:52:37;42.63;;;24.03;;
76262;SDS011;65080;50.908;6.916;2022-11-30T07:55:06;41.87;;;22.73;;
76262;SDS011;65080;50.908;6.916;2022-11-30T07:57:35;34.07;;;21.20;;
76262;SDS011;65080;50.908;6.916;2022-11-30T08:00:04;35.00;;;19.60;;
76262;SDS011;65080;50.908;6.916;2022-11-30T08:02:34;32.50;;;19.43;;
76262;SDS011;65080;50.908;6.916;2022-11-30T08:05:05;33.23;;;19.10;;
76262;SDS011;65080;50.908;6.916;2022-11-30T08:07:37;30.00;;;17.50;;
76262;SDS011;65080;50.908;6.916;2022-11-30T08:10:05;34.00;;;19.07;;
76262;SDS011;65080;50.908;6.916;2022-11-30T08:12:34;32.83;;;19.63;;
76262;SDS011;65080;50.908;6.916;2022-11-30T08:15:03;30.97;;;19.00;;
76262;SDS011;65080;50.908;6.916;2022-11-30T08:17:53;35.57;;;21.37;;
76262;SDS011;65080;50.908;6.916;2022-11-30T08:20:22;32.30;;;19.23;;
76262;SDS011;65080;50.908;6.916;2022-11-30T08:22:51;35.63;;;20.70;;
76262;SDS011;65080;50.908;6.916;2022-11-30T08:25:20;37.93;;;21.70;;
76262;SDS011;65080;50.908;6.916;2022-11-30T08:27:48;35.20;;;21.30;;
76262;SDS011;65080;50.908;6.916;2022-11-30T08:30:17;31.17;;;19.63;;
76262;SDS011;65080;50.908;6.916;2022-11-30T08:32:45;38.10;;;22.47;;
76262;SDS011;65080;50.908;6.916;2022-11-30T08:35:14;38.93;;;21.00;;
76262;SDS011;65080;50.908;6.916;2022-11-30T08:37:44;41.90;;;26.00;;
76262;SDS011;65080;50.908;6.916;2022-11-30T08:40:12;36.00;;;22.90;;
76262;SDS011;65080;50.908;6.916;2022-11-30T08:42:40;37.90;;;22.60;;
76262;SDS011;65080;50.908;6.916;2022-11-30T08:45:09;31.30;;;20.00;;
76262;SDS011;65080;50.908;6.916;2022-11-30T08:47:38;31.33;;;20.13;;
76262;SDS011;65080;50.908;6.916;2022-11-30T08:50:06;30.73;;;20.00;;
76262;SDS011;65080;50.908;6.916;2022-11-30T08:52:35;34.23;;;21.47;;
76262;SDS011;65080;50.908;6.916;2022-11-30T08:55:05;33.43;;;22.30;;
76262;SDS011;65080;50.908;6.916;2022-11-30T08:57:35;35.93;;;22.20;;
76262;SDS011;65080;50.908;6.916;2022-11-30T09:00:03;34.53;;;22.03;;
76262;SDS011;65080;50.908;6.916;2022-11-30T09:02:33;34.93;;;22.30;;
76262;SDS011;65080;50.908;6.916;2022-11-30T09:05:01;37.50;;;22.47;;
76262;SDS011;65080;50.908;6.916;2022-11-30T09:07:29;37.20;;;22.67;;
76262;SDS011;65080;50.908;6.916;2022-11-30T09:09:57;37.70;;;23.03;;
76262;SDS011;65080;50.908;6.916;2022-11-30T09:12:27;34.43;;;22.40;;
76262;SDS011;65080;50.908;6.916;2022-11-30T09:14:55;38.70;;;23.93;;
76262;SDS011;65080;50.908;6.916;2022-11-30T09:17:24;36.30;;;22.50;;
76262;SDS011;65080;50.908;6.916;2022-11-30T09:19:53;34.97;;;22.33;;
76262;SDS011;65080;50.908;6.916;2022-11-30T09:22:21;36.87;;;21.47;;
76262;SDS011;65080;50.908;6.916;2022-11-30T09:24:49;36.53;;;22.27;;
76262;SDS011;65080;50.908;6.916;2022-11-30T09:27:18;33.57;;;21.30;;
76262;SDS011;65080;50.908;6.916;2022-11-30T09:29:48;34.40;;;20.80;;
76262;SDS011;65080;50.908;6.916;2022-11-30T09:32:16;35.70;;;22.50;;
76262;SDS011;65080;50.908;6.916;2022-11-30T09:34:44;37.00;;;23.73;;
76262;SDS011;65080;50.908;6.916;2022-11-30T09:37:16;37.83;;;22.30;;
76262;SDS011;65080;50.908;6.916;2022-11-30T09:39:44;36.10;;;23.30;;
76262;SDS011;65080;50.908;6.916;2022-11-30T09:45:13;38.60;;;23.50;;
76262;SDS011;65080;50.908;6.916;2022-11-30T09:47:51;44.20;;;25.43;;
76262;SDS011;65080;50.908;6.916;2022-11-30T09:50:47;38.93;;;24.40;;
76262;SDS011;65080;50.908;6.916;2022-11-30T09:53:19;36.10;;;23.27;;
76262;SDS011;65080;50.908;6.916;2022-11-30T09:55:55;35.20;;;22.23;;
76262;SDS011;65080;50.908;6.916;2022-11-30T09:58:26;37.70;;;23.57;;
76262;SDS011;65080;50.908;6.916;2022-11-30T10:01:05;40.53;;;24.47;;
76262;SDS011;65080;50.908;6.916;2022-11-30T10:03:42;40.57;;;24.80;;
76262;SDS011;65080;50.908;6.916;2022-11-30T10:06:12;39.70;;;24.00;;
76262;SDS011;65080;50.908;6.916;2022-11-30T10:08:52;44.10;;;24.33;;
76262;SDS011;65080;50.908;6.916;2022-11-30T10:11:35;39.90;;;24.10;;
76262;SDS011;65080;50.908;6.916;2022-11-30T10:17:16;37.77;;;24.37;;
76262;SDS011;65080;50.908;6.916;2022-11-30T10:20:00;38.03;;;24.33;;
76262;SDS011;65080;50.908;6.916;2022-11-30T10:22:48;37.50;;;23.70;;
76262;SDS011;65080;50.908;6.916;2022-11-30T10:25:32;42.77;;;26.10;;
76262;SDS011;65080;50.908;6.916;2022-11-30T10:28:13;39.40;;;24.27;;
76262;SDS011;65080;50.908;6.916;2022-11-30T10:31:03;41.70;;;25.73;;
76262;SDS011;65080;50.908;6.916;2022-11-30T10:33:39;40.50;;;24.50;;
76262;SDS011;65080;50.908;6.916;2022-11-30T10:36:12;39.20;;;23.20;;
76262;SDS011;65080;50.908;6.916;2022-11-30T10:38:47;42.93;;;25.83;;
76262;SDS011;65080;50.908;6.916;2022-11-30T10:41:19;40.53;;;25.27;;
76262;SDS011;65080;50.908;6.916;2022-11-30T10:43:51;41.20;;;25.30;;
76262;SDS011;65080;50.908;6.916;2022-11-30T10:46:26;44.10;;;26.30;;
76262;SDS011;65080;50.908;6.916;2022-11-30T10:49:00;47.30;;;27.50;;
76262;SDS011;65080;50.908;6.916;2022-11-30T10:51:31;42.00;;;26.23;;
76262;SDS011;65080;50.908;6.916;2022-11-30T10:54:02;48.50;;;29.87;;
76262;SDS011;65080;50.908;6.916;2022-11-30T10:56:40;50.97;;;28.70;;
76262;SDS011;65080;50.908;6.916;2022-11-30T10:59:09;48.77;;;27.87;;
76262;SDS011;65080;50.908;6.916;2022-11-30T11:01:43;50.37;;;29.27;;
76262;SDS011;65080;50.908;6.916;2022-11-30T11:04:16;48.70;;;29.20;;
76262;SDS011;65080;50.908;6.916;2022-11-30T11:06:48;51.33;;;30.10;;
76262;SDS011;65080;50.908;6.916;2022-11-30T11:09:22;48.03;;;29.20;;
76262;SDS011;65080;50.908;6.916;2022-11-30T11:11:58;49.70;;;30.73;;
76262;SDS011;65080;50.908;6.916;2022-11-30T11:14:27;43.23;;;27.23;;
76262;SDS011;65080;50.908;6.916;2022-11-30T11:17:03;53.80;;;31.17;;
76262;SDS011;65080;50.908;6.916;2022-11-30T11:19:36;51.97;;;30.57;;
76262;SDS011;65080;50.908;6.916;2022-11-30T11:22:13;53.77;;;31.43;;
76262;SDS011;65080;50.908;6.916;2022-11-30T11:24:44;49.57;;;30.17;;
76262;SDS011;65080;50.908;6.916;2022-11-30T11:27:20;54.27;;;32.00;;
76262;SDS011;65080;50.908;6.916;2022-11-30T11:29:57;53.40;;;31.90;;
76262;SDS011;65080;50.908;6.916;2022-11-30T11:32:28;52.97;;;30.93;;
76262;SDS011;65080;50.908;6.916;2022-11-30T11:34:59;55.87;;;33.83;;
76262;SDS011;65080;50.908;6.916;2022-11-30T11:37:28;56.17;;;31.20;;
76262;SDS011;65080;50.908;6.916;2022-11-30T11:40:03;51.60;;;31.80;;
76262;SDS011;65080;50.908;6.916;2022-11-30T11:42:41;53.47;;;31.40;;
76262;SDS011;65080;50.908;6.916;2022-11-30T11:45:15;55.93;;;32.40;;
76262;SDS011;65080;50.908;6.916;2022-11-30T11:47:46;49.93;;;31.40;;
76262;SDS011;65080;50.908;6.916;2022-11-30T11:50:30;59.03;;;33.10;;
76262;SDS011;65080;50.908;6.916;2022-11-30T11:53:20;61.00;;;31.40;;
76262;SDS011;65080;50.908;6.916;2022-11-30T11:55:52;63.93;;;33.87;;
76262;SDS011;65080;50.908;6.916;2022-11-30T11:58:26;57.40;;;32.40;;
76262;SDS011;65080;50.908;6.916;2022-11-30T12:01:03;53.83;;;32.50;;
76262;SDS011;65080;50.908;6.916;2022-11-30T12:03:59;60.47;;;33.97;;
76262;SDS011;65080;50.908;6.916;2022-11-30T12:06:40;56.83;;;33.47;;
76262;SDS011;65080;50.908;6.916;2022-11-30T12:09:11;64.03;;;34.43;;
76262;SDS011;65080;50.908;6.916;2022-11-30T12:11:44;63.97;;;32.60;;
76262;SDS011;65080;50.908;6.916;2022-11-30T12:14:14;61.43;;;35.87;;
76262;SDS011;65080;50.908;6.916;2022-11-30T12:16:49;59.13;;;33.00;;
76262;SDS011;65080;50.908;6.916;2022-11-30T12:19:30;58.20;;;33.33;;
76262;SDS011;65080;50.908;6.916;2022-11-30T12:22:06;66.10;;;34.97;;
76262;SDS011;65080;50.908;6.916;2022-11-30T12:24:48;63.77;;;35.37;;
76262;SDS011;65080;50.908;6.916;2022-11-30T12:27:34;69.67;;;35.77;;
76262;SDS011;65080;50.908;6.916;2022-11-30T12:30:17;55.97;;;32.33;;
76262;SDS011;65080;50.908;6.916;2022-11-30T12:35:44;55.47;;;32.13;;
76262;SDS011;65080;50.908;6.916;2022-11-30T12:38:33;59.80;;;33.57;;
76262;SDS011;65080;50.908;6.916;2022-11-30T12:41:14;65.73;;;32.40;;
76262;SDS011;65080;50.908;6.916;2022-11-30T12:44:10;59.20;;;33.17;;
76262;SDS011;65080;50.908;6.916;2022-11-30T12:46:55;61.03;;;34.07;;
76262;SDS011;65080;50.908;6.916;2022-11-30T12:49:39;63.67;;;33.53;;
76262;SDS011;65080;50.908;6.916;2022-11-30T12:52:22;62.43;;;34.57;;
76262;SDS011;65080;50.908;6.916;2022-11-30T12:55:03;60.67;;;35.10;;
76262;SDS011;65080;50.908;6.916;2022-11-30T12:57:42;65.07;;;35.00;;
76262;SDS011;65080;50.908;6.916;2022-11-30T13:00:16;63.47;;;32.53;;
76262;SDS011;65080;50.908;6.916;2022-11-30T13:02:52;59.67;;;32.60;;
76262;SDS011;65080;50.908;6.916;2022-11-30T13:05:45;61.37;;;33.17;;
76262;SDS011;65080;50.908;6.916;2022-11-30T13:08:19;66.03;;;34.30;;
76262;SDS011;65080;50.908;6.916;2022-11-30T13:10:54;65.70;;;34.50;;
76262;SDS011;65080;50.908;6.916;2022-11-30T13:13:28;64.97;;;35.80;;
76262;SDS011;65080;50.908;6.916;2022-11-30T13:16:00;72.00;;;37.87;;
76262;SDS011;65080;50.908;6.916;2022-11-30T13:18:32;66.77;;;35.80;;
76262;SDS011;65080;50.908;6.916;2022-11-30T13:21:03;65.63;;;36.70;;
76262;SDS011;65080;50.908;6.916;2022-11-30T13:23:36;65.03;;;33.90;;
76262;SDS011;65080;50.908;6.916;2022-11-30T13:26:13;63.60;;;34.90;;
76262;SDS011;65080;50.908;6.916;2022-11-30T13:28:53;65.90;;;34.77;;
76262;SDS011;65080;50.908;6.916;2022-11-30T13:31:33;63.50;;;35.60;;
76262;SDS011;65080;50.908;6.916;2022-11-30T13:34:10;61.97;;;35.60;;
76262;SDS011;65080;50.908;6.916;2022-11-30T13:36:50;61.97;;;35.00;;
76262;SDS011;65080;50.908;6.916;2022-11-30T13:47:25;60.07;;;32.27;;
76262;SDS011;65080;50.908;6.916;2022-11-30T13:50:14;60.73;;;32.73;;
76262;SDS011;65080;50.908;6.916;2022-11-30T14:01:46;51.47;;;29.67;;
76262;SDS011;65080;50.908;6.916;2022-11-30T14:10:25;60.13;;;32.77;;
76262;SDS011;65080;50.908;6.916;2022-11-30T14:12:56;56.17;;;33.17;;
76262;SDS011;65080;50.908;6.916;2022-11-30T14:15:27;56.37;;;33.20;;
76262;SDS011;65080;50.908;6.916;2022-11-30T14:18:26;59.53;;;32.80;;
76262;SDS011;65080;50.908;6.916;2022-11-30T14:21:12;57.10;;;32.67;;
76262;SDS011;65080;50.908;6.916;2022-11-30T14:23:56;60.40;;;34.53;;
76262;SDS011;65080;50.908;6.916;2022-11-30T14:26:27;62.70;;;32.87;;
76262;SDS011;65080;50.908;6.916;2022-11-30T14:29:03;55.80;;;33.27;;
76262;SDS011;65080;50.908;6.916;2022-11-30T14:31:39;63.43;;;34.10;;
76262;SDS011;65080;50.908;6.916;2022-11-30T14:34:15;52.77;;;32.23;;
76262;SDS011;65080;50.908;6.916;2022-11-30T14:36:47;53.93;;;32.70;;
76262;SDS011;65080;50.908;6.916;2022-11-30T14:39:24;68.73;;;37.30;;
76262;SDS011;65080;50.908;6.916;2022-11-30T14:41:55;58.30;;;33.97;;
76262;SDS011;65080;50.908;6.916;2022-11-30T14:44:25;51.57;;;31.63;;
76262;SDS011;65080;50.908;6.916;2022-11-30T14:49:25;53.30;;;31.73;;
76262;SDS011;65080;50.908;6.916;2022-11-30T14:51:54;54.90;;;31.33;;
76262;SDS011;65080;50.908;6.916;2022-11-30T14:57:17;48.67;;;30.57;;
76262;SDS011;65080;50.908;6.916;2022-11-30T14:59:52;49.20;;;30.40;;
76262;SDS011;65080;50.908;6.916;2022-11-30T15:02:24;50.90;;;30.30;;
76262;SDS011;65080;50.908;6.916;2022-11-30T15:04:59;51.73;;;30.63;;
76262;SDS011;65080;50.908;6.916;2022-11-30T15:07:29;54.30;;;31.00;;
76262;SDS011;65080;50.908;6.916;2022-11-30T15:10:01;47.13;;;28.43;;
76262;SDS011;65080;50.908;6.916;2022-11-30T15:12:31;47.80;;;29.73;;
76262;SDS011;65080;50.908;6.916;2022-11-30T15:15:14;49.67;;;29.07;;
76262;SDS011;65080;50.908;6.916;2022-11-30T15:17:46;54.97;;;31.47;;
76262;SDS011;65080;50.908;6.916;2022-11-30T15:20:26;45.40;;;26.40;;
76262;SDS011;65080;50.908;6.916;2022-11-30T15:22:56;47.87;;;27.80;;
76262;SDS011;65080;50.908;6.916;2022-11-30T15:25:32;49.33;;;29.20;;
76262;SDS011;65080;50.908;6.916;2022-11-30T15:28:04;56.33;;;28.27;;
76262;SDS011;65080;50.908;6.916;2022-11-30T15:30:35;49.17;;;28.13;;